Time;durP1;ratioP1;P1;durP2;ratioP2;P2;SDS_P1;SDS_P2;PMS_P1;PMS_P2;Temp;Humidity;BMP_temperature;BMP_pressure;BME280_temperature;BME280_humidity;BME280_pressure;Samples;Min_cycle;Max_cycle;Signal;HPM_P1;HPM_P2
2022/03/22 00:00:15;;;;;;;17.50;15.70;;;;;;;0.12;50.11;94154.91;5046932;28;20246;-73
2022/03/22 00:02:42;;;;;;;16.27;14.73;;;;;;;0.27;49.71;94151.38;5048672;28;20220;-73
2022/03/22 00:05:08;;;;;;;15.67;14.20;;;;;;;0.42;49.18;94164.97;5048394;28;20233;-72
2022/03/22 00:07:33;;;;;;;18.73;14.63;;;;;;;0.63;51.19;94149.63;5048232;28;20190;-73
2022/03/22 00:09:59;;;;;;;16.67;15.17;;;;;;;0.40;53.25;94155.88;5048334;28;20245;-73
2022/03/22 00:12:24;;;;;;;16.50;15.00;;;;;;;0.25;52.94;94147.41;5049000;28;20193;-73
2022/03/22 00:14:50;;;;;;;15.67;14.17;;;;;;;0.22;53.38;94137.47;5047015;28;20245;-73
2022/03/22 00:17:15;;;;;;;23.73;15.07;;;;;;;0.39;52.92;94126.81;5047935;28;20286;-73
2022/03/22 00:19:41;;;;;;;21.73;15.23;;;;;;;0.24;53.65;94146.59;5047198;28;20233;-72
2022/03/22 00:22:06;;;;;;;17.53;15.80;;;;;;;0.11;55.06;94137.94;5047694;28;20202;-73
2022/03/22 00:24:32;;;;;;;15.27;13.77;;;;;;;0.13;54.29;94133.38;5048433;28;20260;-73
2022/03/22 00:26:57;;;;;;;18.03;15.53;;;;;;;0.05;54.51;94143.78;5047683;28;20221;-73
2022/03/22 00:29:23;;;;;;;17.07;14.80;;;;;;;-0.01;54.32;94133.25;5047858;28;20297;-73
2022/03/22 00:31:48;;;;;;;18.23;16.33;;;;;;;0.00;52.61;94139.19;5046923;28;20209;-73
2022/03/22 00:34:14;;;;;;;16.57;14.97;;;;;;;0.20;51.38;94139.41;5047009;28;20233;-73
2022/03/22 00:36:40;;;;;;;16.87;15.00;;;;;;;0.25;51.28;94143.03;5048650;28;20190;-73
2022/03/22 00:39:06;;;;;;;16.97;15.17;;;;;;;0.40;50.95;94140.47;5046533;28;20272;-73
2022/03/22 00:41:31;;;;;;;16.53;14.87;;;;;;;0.48;49.83;94136.03;5051748;28;20194;-73
2022/03/22 00:43:57;;;;;;;17.77;15.97;;;;;;;0.53;50.07;94131.13;5051099;28;20289;-73
2022/03/22 00:46:22;;;;;;;16.70;15.07;;;;;;;0.72;48.76;94135.69;5051475;28;20205;-73
2022/03/22 00:48:48;;;;;;;16.83;15.27;;;;;;;0.89;48.12;94136.25;5051946;28;20225;-73
2022/03/22 00:51:14;;;;;;;17.13;15.53;;;;;;;0.93;47.98;94138.31;5051455;28;20201;-73
2022/03/22 00:53:41;;;;;;;17.90;16.17;;;;;;;0.91;48.02;94129.97;5051692;28;20229;-73
2022/03/22 00:56:08;;;;;;;17.43;15.60;;;;;;;0.91;48.75;94134.31;5050204;28;20190;-73
2022/03/22 00:58:34;;;;;;;17.10;15.13;;;;;;;0.96;48.35;94127.66;5051824;28;20228;-73
2022/03/22 01:01:00;;;;;;;17.00;15.17;;;;;;;0.94;49.50;94132.16;5052254;28;20194;-73
2022/03/22 01:03:28;;;;;;;15.83;14.20;;;;;;;0.86;49.59;94127.13;5049687;28;20222;-73
2022/03/22 01:05:55;;;;;;;15.47;13.87;;;;;;;0.86;49.35;94134.84;5051824;28;20209;-73
2022/03/22 01:08:21;;;;;;;15.30;13.83;;;;;;;0.89;49.19;94124.19;5051208;28;20232;-74
2022/03/22 01:10:52;;;;;;;16.73;15.13;;;;;;;0.99;49.46;94114.44;5049695;28;20198;-73
2022/03/22 01:13:18;;;;;;;17.97;16.17;;;;;;;1.07;49.62;94124.59;5050790;28;20214;-73
2022/03/22 01:15:43;;;;;;;17.43;15.77;;;;;;;1.02;49.22;94116.63;5050882;28;20190;-73
2022/03/22 01:18:12;;;;;;;15.17;13.57;;;;;;;1.15;48.97;94115.94;5051412;28;20224;-73
2022/03/22 01:20:46;;;;;;;17.43;15.53;;;;;;;1.49;48.49;94121.19;5050468;28;20208;-73
2022/03/22 01:23:12;;;;;;;16.33;14.63;;;;;;;1.56;47.23;94125.38;5051066;28;20187;-73
2022/03/22 01:25:39;;;;;;;16.57;14.97;;;;;;;1.46;48.57;94109.47;5050762;28;20193;-73
2022/03/22 01:28:07;;;;;;;17.50;15.97;;;;;;;1.20;50.41;94116.97;5051269;28;20194;-72
2022/03/22 01:30:34;;;;;;;18.63;16.73;;;;;;;0.98;50.67;94119.75;5050531;28;20193;-73
2022/03/22 01:32:59;;;;;;;17.87;16.17;;;;;;;0.91;51.33;94109.41;5050971;28;20383;-73
2022/03/22 01:35:26;;;;;;;19.23;17.10;;;;;;;0.98;51.27;94109.47;5049780;28;20256;-73
2022/03/22 01:37:54;;;;;;;21.93;17.30;;;;;;;0.97;51.81;94088.09;5051382;28;20190;-73
2022/03/22 01:40:22;;;;;;;17.60;15.93;;;;;;;0.57;52.35;94052.72;5050374;28;20222;-73
2022/03/22 01:42:48;;;;;;;18.00;16.37;;;;;;;0.79;52.91;94074.09;5049899;28;20224;-76
2022/03/22 01:45:15;;;;;;;18.73;16.93;;;;;;;0.73;52.28;94054.25;5050584;28;20252;-75
2022/03/22 01:47:43;;;;;;;19.07;17.00;;;;;;;1.18;49.67;94105.28;5051068;28;20214;-75
2022/03/22 01:50:11;;;;;;;19.17;17.10;;;;;;;1.39;46.58;94108.63;5051012;28;20229;-75
2022/03/22 01:52:40;;;;;;;16.63;15.07;;;;;;;1.41;49.26;94101.53;5049790;28;20204;-76
2022/03/22 01:55:07;;;;;;;18.17;16.43;;;;;;;1.29;51.32;94097.84;5050527;28;20224;-75
2022/03/22 01:57:36;;;;;;;17.83;16.13;;;;;;;1.14;50.50;94098.91;5048912;28;20193;-76
2022/03/22 02:00:08;;;;;;;23.23;16.93;;;;;;;1.30;50.39;94091.75;5050037;28;20217;-75
2022/03/22 02:08:08;;;;;;;18.43;16.20;;;;;;;1.12;52.21;94081.09;5050272;28;20232;-76
2022/03/22 02:10:34;;;;;;;18.47;15.87;;;;;;;0.98;49.25;94088.91;5049163;28;20229;-75
2022/03/22 02:13:00;;;;;;;19.40;16.63;;;;;;;0.94;48.85;94078.19;5051301;28;20197;-75
2022/03/22 02:15:26;;;;;;;18.07;16.27;;;;;;;1.20;50.38;94091.25;5047839;28;20229;-76
2022/03/22 02:17:52;;;;;;;15.87;14.53;;;;;;;1.15;53.27;94095.38;5049556;28;20221;-74
2022/03/22 02:20:18;;;;;;;16.17;14.57;;;;;;;0.77;54.92;94081.97;5049990;28;20234;-75
2022/03/22 02:22:51;;;;;;;15.83;14.40;;;;;;;0.84;52.23;94082.81;5050463;28;20171;-75
2022/03/22 02:25:18;;;;;;;18.00;16.00;;;;;;;1.15;50.96;94083.28;5047107;28;20222;-75
2022/03/22 02:27:46;;;;;;;15.67;14.17;;;;;;;1.14;51.73;94086.06;5048833;28;20186;-74
2022/03/22 02:30:13;;;;;;;18.10;16.47;;;;;;;1.05;50.19;94087.97;5050122;28;20267;-75
2022/03/22 02:32:39;;;;;;;17.57;15.77;;;;;;;0.89;51.48;94088.22;5049120;28;20196;-76
2022/03/22 02:35:06;;;;;;;18.40;16.50;;;;;;;1.18;45.97;94089.88;5049114;28;20222;-75
2022/03/22 02:37:32;;;;;;;16.47;14.90;;;;;;;1.34;44.30;94072.38;5048262;28;20209;-75
2022/03/22 02:39:58;;;;;;;17.47;15.67;;;;;;;1.38;46.51;94083.91;5048591;28;20218;-75
2022/03/22 02:42:24;;;;;;;17.20;15.50;;;;;;;1.47;44.85;94074.25;5048583;28;20201;-74
2022/03/22 02:44:49;;;;;;;16.77;15.17;;;;;;;1.45;46.33;94077.00;5048321;28;20226;-74
2022/03/22 02:47:14;;;;;;;17.50;15.67;;;;;;;1.43;45.16;94078.97;5049621;28;20194;-74
2022/03/22 02:49:40;;;;;;;16.03;14.50;;;;;;;1.40;47.00;94074.19;5049912;28;20225;-75
2022/03/22 02:52:06;;;;;;;17.50;15.73;;;;;;;1.54;48.08;94075.88;5047100;28;20269;-74
2022/03/22 02:54:31;;;;;;;16.70;15.17;;;;;;;1.58;49.63;94087.41;5047377;28;20230;-70
2022/03/22 02:56:57;;;;;;;16.20;14.53;;;;;;;1.34;50.91;94089.56;5049150;28;20213;-73
2022/03/22 02:59:23;;;;;;;16.73;15.13;;;;;;;1.29;50.71;94091.94;5048535;28;20240;-74
2022/03/22 03:01:48;;;;;;;17.67;15.97;;;;;;;1.22;50.50;94084.16;5049571;28;20194;-74
2022/03/22 03:04:13;;;;;;;17.27;15.07;;;;;;;0.95;50.92;94082.34;5048816;28;20222;-75
2022/03/22 03:06:39;;;;;;;17.37;15.80;;;;;;;0.78;50.52;94088.69;5048464;28;20222;-75
2022/03/22 03:09:04;;;;;;;18.87;16.37;;;;;;;0.66;51.42;94097.06;5049108;28;20233;-75
2022/03/22 03:11:30;;;;;;;17.13;15.43;;;;;;;0.63;50.77;94084.59;5049150;28;20253;-74
2022/03/22 03:16:39;;;;;;;17.57;16.07;;;;;;;0.44;52.86;94085.97;5048996;28;20231;-75
2022/03/22 03:19:06;;;;;;;19.67;16.77;;;;;;;0.28;52.64;94086.19;5049113;28;20226;-74
2022/03/22 03:21:32;;;;;;;15.20;13.73;;;;;;;0.58;51.87;94092.84;5049615;28;20193;-73
2022/03/22 03:23:58;;;;;;;21.70;16.30;;;;;;;0.42;51.46;94064.81;5047995;28;20237;-74
2022/03/22 03:26:23;;;;;;;26.87;19.33;;;;;;;0.42;51.27;94084.56;5048963;28;20190;-75
2022/03/22 03:28:49;;;;;;;20.73;17.37;;;;;;;0.04;50.61;94045.41;5048854;28;20297;-74
2022/03/22 03:31:14;;;;;;;18.10;15.70;;;;;;;0.34;51.12;94082.09;5049667;28;21055;-75
2022/03/22 03:33:40;;;;;;;19.17;17.37;;;;;;;0.46;51.16;94084.03;5048438;28;20309;-75
2022/03/22 03:36:05;;;;;;;18.80;16.63;;;;;;;0.23;51.71;94080.00;5048721;28;20253;-75
2022/03/22 03:38:31;;;;;;;25.87;18.67;;;;;;;0.42;50.82;94087.91;5047685;28;20233;-75
2022/03/22 03:43:40;;;;;;;20.00;17.97;;;;;;;0.28;51.61;94065.63;5046914;28;20232;-75
2022/03/22 03:48:50;;;;;;;18.57;16.73;;;;;;;0.41;52.55;94080.41;5048195;28;20240;-74
2022/03/22 03:51:15;;;;;;;18.73;16.83;;;;;;;0.26;52.40;94071.94;5048713;28;20222;-75
2022/03/22 03:53:41;;;;;;;19.70;17.00;;;;;;;0.50;52.66;94074.97;5048155;28;20213;-74
2022/03/22 03:56:06;;;;;;;21.20;16.60;;;;;;;0.30;53.79;94068.81;5048477;28;20186;-75
2022/03/22 03:58:32;;;;;;;19.27;17.37;;;;;;;0.33;54.72;94073.59;5048804;28;20249;-75
2022/03/22 04:00:57;;;;;;;17.83;15.53;;;;;;;-0.05;55.02;94074.75;5049453;28;20198;-75
2022/03/22 04:03:23;;;;;;;18.37;15.50;;;;;;;-0.23;55.82;94074.28;5047608;28;20194;-74
2022/03/22 04:05:48;;;;;;;25.13;15.10;;;;;;;-0.08;53.71;94057.91;5049323;28;20208;-73
2022/03/22 04:08:13;;;;;;;19.63;16.43;;;;;;;0.08;52.84;94084.38;5048626;28;20198;-74
2022/03/22 04:10:39;;;;;;;18.63;16.57;;;;;;;0.06;53.58;94086.31;5047473;28;20201;-74
2022/03/22 04:13:04;;;;;;;17.53;15.67;;;;;;;-0.06;53.58;94057.72;5048772;28;20237;-75
2022/03/22 04:15:31;;;;;;;19.30;16.63;;;;;;;0.17;52.57;94083.28;5050263;28;20194;-75
2022/03/22 04:17:59;;;;;;;19.00;16.93;;;;;;;0.32;52.91;94077.16;5053413;28;20249;-74
2022/03/22 04:20:25;;;;;;;19.27;17.27;;;;;;;0.24;53.34;94079.81;5050468;28;20240;-74
2022/03/22 04:22:51;;;;;;;18.67;16.67;;;;;;;0.14;53.42;94081.88;5052585;28;20220;-74
2022/03/22 04:25:17;;;;;;;17.47;15.73;;;;;;;0.08;52.74;94074.88;5052004;28;20229;-75
2022/03/22 04:33:11;;;;;;;16.07;14.57;;;;;;;0.43;51.31;94081.81;5052366;28;20205;-73
2022/03/22 04:35:37;;;;;;;21.07;16.03;;;;;;;0.64;50.33;94084.41;5051094;28;20178;-74
2022/03/22 04:38:02;;;;;;;19.60;17.27;;;;;;;0.63;50.21;94084.59;5045058;28;21042;-75
2022/03/22 04:40:28;;;;;;;17.50;15.70;;;;;;;0.63;49.38;94074.31;5051156;28;20220;-75
2022/03/22 04:42:53;;;;;;;18.67;15.60;;;;;;;0.69;49.70;94074.38;5050363;28;20254;-76
2022/03/22 04:45:19;;;;;;;23.97;17.03;;;;;;;0.90;49.56;94084.66;5050353;28;20228;-73
2022/03/22 04:47:45;;;;;;;23.73;19.50;;;;;;;1.00;49.32;94081.78;5048970;28;20186;-74
2022/03/22 04:50:12;;;;;;;24.00;18.33;;;;;;;0.94;50.54;94074.81;5045472;28;20226;-74
2022/03/22 04:58:06;;;;;;;23.30;18.33;;;;;;;1.10;50.79;94082.28;5049455;28;20200;-78
2022/03/22 05:00:34;;;;;;;20.00;17.03;;;;;;;1.09;50.80;94075.56;5051445;28;20194;-79
2022/03/22 05:03:00;;;;;;;24.13;17.00;;;;;;;1.21;51.21;94074.06;5051584;28;20189;-79
2022/03/22 05:08:10;;;;;;;18.90;17.00;;;;;;;1.28;49.33;94062.84;5048383;28;20197;-78
2022/03/22 05:10:36;;;;;;;21.83;17.33;;;;;;;1.46;48.38;94091.44;5050271;28;20182;-75
2022/03/22 05:13:04;;;;;;;23.67;16.97;;;;;;;1.71;47.27;94093.63;5044977;28;20187;-74
2022/03/22 05:15:31;;;;;;;26.67;18.03;;;;;;;1.84;46.78;94091.13;5049943;28;20221;-75
2022/03/22 05:17:56;;;;;;;21.23;17.73;;;;;;;2.03;48.23;94070.63;5048334;28;20245;-76
2022/03/22 05:20:22;;;;;;;18.93;15.47;;;;;;;2.09;45.48;94080.16;5048348;28;20301;-75
2022/03/22 05:22:48;;;;;;;22.87;15.87;;;;;;;2.24;44.69;94082.63;5050951;28;20174;-75
2022/03/22 05:25:14;;;;;;;25.20;17.03;;;;;;;2.49;43.13;94092.22;5048222;28;20222;-75
2022/03/22 05:27:39;;;;;;;22.27;16.40;;;;;;;2.56;43.84;94092.25;5048971;28;20186;-78
2022/03/22 05:30:06;;;;;;;20.17;16.53;;;;;;;2.63;44.34;94080.19;5049913;28;20252;-78
2022/03/22 05:32:32;;;;;;;17.57;15.40;;;;;;;3.14;59.84;94065.78;5049751;28;20297;-75
2022/03/22 05:34:58;;;;;;;22.60;15.77;;;;;;;3.12;41.65;94075.50;5048207;28;20232;-78
2022/03/22 05:37:24;;;;;;;23.50;16.30;;;;;;;3.24;40.60;94094.56;5049574;28;20186;-72
2022/03/22 05:39:49;;;;;;;20.93;16.00;;;;;;;3.37;42.00;94083.44;5049851;28;20221;-73
2022/03/22 05:42:15;;;;;;;20.33;16.53;;;;;;;3.73;40.80;94084.63;5050357;28;20194;-75
2022/03/22 05:44:43;;;;;;;19.83;16.80;;;;;;;3.58;39.21;94047.09;5049757;28;20214;-77
2022/03/22 05:47:09;;;;;;;19.87;17.40;;;;;;;3.78;39.16;94087.41;5049010;28;20182;-75
2022/03/22 05:49:36;;;;;;;18.13;15.83;;;;;;;3.90;39.03;94087.56;5046686;28;20241;-74
2022/03/22 05:52:03;;;;;;;17.90;16.07;;;;;;;3.91;38.01;94089.16;5047793;28;20183;-75
2022/03/22 05:54:28;;;;;;;22.07;18.03;;;;;;;3.93;38.12;94082.81;5047848;28;20241;-74
2022/03/22 05:56:54;;;;;;;25.30;17.67;;;;;;;3.92;38.14;94091.53;5048047;28;20182;-75
2022/03/22 05:59:19;;;;;;;18.87;16.97;;;;;;;4.00;37.96;94077.63;5046382;28;20234;-74
2022/03/22 06:01:46;;;;;;;18.70;16.80;;;;;;;4.12;37.20;94089.72;5048885;28;20221;-75
2022/03/22 06:04:11;;;;;;;19.33;16.60;;;;;;;4.30;39.64;94079.53;5047241;28;20277;-74
2022/03/22 06:06:38;;;;;;;18.40;16.50;;;;;;;4.36;36.85;94083.88;5048826;28;20201;-75
2022/03/22 06:09:03;;;;;;;20.80;17.70;;;;;;;4.44;36.48;94069.91;5045685;28;20225;-75
2022/03/22 06:11:35;;;;;;;18.87;16.90;;;;;;;4.84;37.02;94090.22;5047170;28;20182;-75
2022/03/22 06:14:05;;;;;;;20.23;17.53;;;;;;;4.92;35.20;94074.44;5047622;28;20279;-74
2022/03/22 06:16:30;;;;;;;18.97;17.17;;;;;;;4.93;34.86;94095.97;5047750;28;20232;-71
2022/03/22 06:18:56;;;;;;;19.63;17.73;;;;;;;4.48;35.74;94046.03;5048254;28;20630;-73
2022/03/22 06:21:22;;;;;;;18.63;16.70;;;;;;;4.84;35.23;94089.44;5049452;28;20217;-72
2022/03/22 06:23:48;;;;;;;20.63;18.53;;;;;;;5.00;34.39;94070.03;5049002;28;20226;-73
2022/03/22 06:26:14;;;;;;;20.47;18.43;;;;;;;5.07;35.02;94065.59;5048777;28;20734;-73
2022/03/22 06:28:40;;;;;;;17.57;15.77;;;;;;;5.02;34.07;94076.59;5048592;28;20248;-75
2022/03/22 06:31:05;;;;;;;18.70;16.93;;;;;;;4.95;34.80;94081.78;5048009;28;20182;-74
2022/03/22 06:33:31;;;;;;;17.80;16.00;;;;;;;4.93;34.64;94086.38;5048026;28;20224;-76
2022/03/22 06:35:57;;;;;;;18.60;16.77;;;;;;;5.00;35.64;94088.16;5049995;28;20193;-76
2022/03/22 06:38:22;;;;;;;19.60;17.70;;;;;;;5.03;34.32;94096.28;5046477;28;20186;-75
2022/03/22 06:40:49;;;;;;;18.33;16.50;;;;;;;5.04;34.19;94091.91;5047838;28;20206;-76
2022/03/22 06:43:16;;;;;;;19.30;17.20;;;;;;;5.14;34.21;94087.84;5048928;28;20213;-73
2022/03/22 06:45:43;;;;;;;19.17;17.27;;;;;;;5.33;33.53;94091.31;5048730;28;20210;-74
2022/03/22 06:48:09;;;;;;;22.30;18.57;;;;;;;5.35;34.39;94090.13;5045735;28;20186;-74
2022/03/22 06:50:37;;;;;;;22.93;18.03;;;;;;;5.56;33.78;94091.53;5048291;28;20265;-73
2022/03/22 06:53:05;;;;;;;19.00;17.17;;;;;;;5.57;33.68;94087.94;5047020;28;20198;-72
2022/03/22 06:55:31;;;;;;;20.27;17.43;;;;;;;5.76;34.95;94097.38;5029278;28;20227;-73
2022/03/22 06:57:57;;;;;;;19.20;15.70;;;;;;;5.67;34.11;94088.25;5028417;28;20199;-74
2022/03/22 07:00:22;;;;;;;19.37;17.47;;;;;;;5.75;34.49;94086.19;5046353;28;20782;-74
2022/03/22 07:02:49;;;;;;;20.47;17.67;;;;;;;6.00;33.90;94070.63;5048269;28;20212;-75
2022/03/22 07:05:16;;;;;;;18.57;16.77;;;;;;;6.21;38.69;94078.03;5048240;28;20226;-74
2022/03/22 07:07:42;;;;;;;20.10;17.97;;;;;;;6.92;33.39;94076.34;5047733;28;20194;-74
2022/03/22 07:10:11;;;;;;;25.53;19.07;;;;;;;6.93;34.17;94085.72;5047418;28;20722;-75
2022/03/22 07:12:56;;;;;;;21.37;17.90;;;;;;;6.99;33.32;94071.84;5049098;28;20186;-74
2022/03/22 07:15:23;;;;;;;19.10;16.17;;;;;;;6.81;32.64;94081.50;5047466;28;20232;-74
2022/03/22 07:17:50;;;;;;;25.70;18.67;;;;;;;6.38;34.51;94079.03;5048885;28;20286;-75
2022/03/22 07:20:16;;;;;;;18.60;16.77;;;;;;;6.88;34.06;94082.22;5048847;28;20234;-74
2022/03/22 07:22:43;;;;;;;20.23;18.27;;;;;;;6.71;34.75;94081.22;5046340;28;20200;-75
2022/03/22 07:25:09;;;;;;;22.83;18.30;;;;;;;7.02;32.55;94084.38;5046105;28;20226;-75
2022/03/22 07:27:35;;;;;;;19.23;17.17;;;;;;;7.28;33.48;94070.25;5047168;28;20170;-75
2022/03/22 07:30:02;;;;;;;20.30;18.20;;;;;;;7.34;33.19;94087.53;5047312;28;20226;-75
2022/03/22 07:32:28;;;;;;;18.20;16.23;;;;;;;7.49;32.90;94070.53;5048433;28;20201;-75
2022/03/22 07:34:54;;;;;;;21.20;17.60;;;;;;;7.31;34.01;94075.81;5047437;28;20230;-74
2022/03/22 07:37:19;;;;;;;19.60;16.67;;;;;;;7.97;33.05;94083.31;5049105;28;20194;-74
2022/03/22 07:39:45;;;;;;;21.00;18.90;;;;;;;7.40;32.87;94045.88;5048140;28;20256;-74
2022/03/22 07:42:11;;;;;;;18.43;16.50;;;;;;;8.02;33.34;94057.44;5046560;28;20186;-74
2022/03/22 07:44:39;;;;;;;19.23;17.33;;;;;;;7.80;34.60;94072.00;5048803;28;20233;-74
2022/03/22 07:47:05;;;;;;;20.17;18.23;;;;;;;8.48;32.45;94077.44;5041556;28;20185;-74
2022/03/22 07:54:59;;;;;;;20.97;18.17;;;;;;;7.98;34.43;94069.31;5048027;28;20253;-74
2022/03/22 07:57:25;;;;;;;21.17;18.50;;;;;;;8.31;34.29;94068.75;5047024;28;20197;-75
2022/03/22 07:59:51;;;;;;;19.50;17.47;;;;;;;7.04;37.23;94051.22;5048159;28;20233;-75
2022/03/22 08:02:16;;;;;;;18.60;16.80;;;;;;;8.11;35.40;94063.88;5049521;28;20182;-75
2022/03/22 08:04:41;;;;;;;20.67;18.53;;;;;;;8.42;34.36;94073.94;5048024;28;20333;-74
2022/03/22 08:07:07;;;;;;;19.17;17.13;;;;;;;8.80;34.07;94083.81;5049152;28;20228;-74
2022/03/22 08:09:33;;;;;;;27.70;17.60;;;;;;;8.77;34.02;94072.03;5047025;28;21066;-76
2022/03/22 08:11:58;;;;;;;25.57;18.37;;;;;;;8.86;34.59;94077.66;5049023;28;20190;-75
2022/03/22 08:14:23;;;;;;;20.87;17.97;;;;;;;8.83;34.74;94065.09;5047645;28;20230;-74
2022/03/22 08:16:49;;;;;;;20.40;18.30;;;;;;;8.71;35.20;94061.75;5040691;28;20210;-75
2022/03/22 08:19:18;;;;;;;20.27;17.87;;;;;;;8.48;35.76;94065.22;5048593;28;20251;-75
2022/03/22 08:21:45;;;;;;;20.10;17.27;;;;;;;8.33;35.35;94082.34;5049192;28;20252;-74
2022/03/22 08:24:10;;;;;;;21.87;17.87;;;;;;;7.78;37.02;94072.25;5047922;28;20320;-74
2022/03/22 08:26:36;;;;;;;20.33;18.20;;;;;;;7.76;37.84;94076.91;5047847;28;20182;-75
2022/03/22 08:29:03;;;;;;;20.17;18.30;;;;;;;7.05;39.52;94075.38;5047136;28;20226;-74
2022/03/22 08:31:29;;;;;;;21.20;18.00;;;;;;;7.31;39.76;94075.81;5049180;28;20209;-75
2022/03/22 08:33:56;;;;;;;23.03;17.57;;;;;;;7.24;39.19;94082.88;5048070;28;20225;-74
2022/03/22 08:36:22;;;;;;;20.63;17.60;;;;;;;7.17;39.56;94076.22;5048540;28;20182;-75
2022/03/22 08:38:49;;;;;;;20.63;17.43;;;;;;;6.92;40.47;94071.16;5046747;28;20218;-74
2022/03/22 08:41:15;;;;;;;22.17;17.67;;;;;;;6.95;42.01;94078.50;5048797;28;20228;-74
2022/03/22 08:43:40;;;;;;;20.57;17.73;;;;;;;6.58;42.22;94064.78;5046645;28;20218;-74
2022/03/22 08:46:06;;;;;;;21.43;17.93;;;;;;;6.16;42.97;94050.13;5046488;28;20206;-75
2022/03/22 08:48:32;;;;;;;21.73;17.93;;;;;;;6.18;43.76;94060.28;5047751;28;20229;-74
2022/03/22 08:50:58;;;;;;;20.73;18.27;;;;;;;6.25;45.74;94058.41;5047763;28;20238;-73
2022/03/22 08:53:24;;;;;;;20.77;18.67;;;;;;;6.48;42.33;94061.94;5048129;28;20186;-73
2022/03/22 08:55:50;;;;;;;21.63;19.67;;;;;;;6.54;42.56;94062.84;5046947;28;20216;-71
2022/03/22 08:58:16;;;;;;;26.77;18.73;;;;;;;6.78;41.55;94067.16;5048329;28;20197;-73
2022/03/22 09:00:45;;;;;;;21.73;18.63;;;;;;;6.92;41.78;94070.34;5047510;28;20198;-81
2022/03/22 09:03:11;;;;;;;21.43;17.63;;;;;;;7.08;41.64;94070.53;5050284;28;20274;-73
2022/03/22 09:08:20;;;;;;;21.37;18.20;;;;;;;6.81;42.29;94034.75;5050933;28;20216;-71
2022/03/22 09:10:49;;;;;;;21.47;18.57;;;;;;;6.62;43.91;94039.22;5043748;28;20217;-71
2022/03/22 09:13:16;;;;;;;23.47;17.03;;;;;;;7.18;42.81;94031.84;5050439;28;20194;-72
2022/03/22 09:15:43;;;;;;;21.13;19.07;;;;;;;7.12;43.26;94031.94;5050208;28;20194;-76
2022/03/22 09:18:14;;;;;;;25.43;19.17;;;;;;;7.24;43.37;94046.53;5051052;28;20241;-75
2022/03/22 09:20:42;;;;;;;22.67;19.10;;;;;;;7.19;43.17;94043.78;5050610;28;20194;-73
2022/03/22 09:23:08;;;;;;;21.03;18.20;;;;;;;7.05;43.33;94045.00;5050952;28;20194;-73
2022/03/22 09:25:34;;;;;;;20.23;18.10;;;;;;;7.00;42.86;94049.28;5048343;28;20197;-73
2022/03/22 09:28:00;;;;;;;23.57;19.27;;;;;;;7.06;42.74;94041.41;5049610;28;20193;-74
2022/03/22 09:30:26;;;;;;;21.43;19.03;;;;;;;7.16;43.15;94046.84;5047401;28;20949;-73
2022/03/22 09:32:52;;;;;;;23.17;17.23;;;;;;;7.92;42.29;94046.84;5049123;28;20213;-73
2022/03/22 09:35:21;;;;;;;24.57;17.77;;;;;;;8.04;42.48;94032.81;5046439;28;20261;-74
2022/03/22 09:37:48;;;;;;;22.50;18.23;;;;;;;7.54;43.00;94039.47;5051179;28;20175;-75
2022/03/22 09:40:17;;;;;;;26.27;20.20;;;;;;;7.87;42.66;94025.91;5047207;28;20234;-75
2022/03/22 09:42:42;;;;;;;23.50;20.20;;;;;;;7.78;43.08;94017.66;5049616;28;20194;-75
2022/03/22 09:45:09;;;;;;;22.47;19.40;;;;;;;8.17;42.54;94027.34;5047152;28;20293;-75
2022/03/22 09:47:36;;;;;;;20.23;17.07;;;;;;;7.91;43.85;94022.63;5048092;28;20217;-73
2022/03/22 09:50:04;;;;;;;24.33;17.40;;;;;;;7.76;44.13;94032.69;5049485;28;20237;-74
2022/03/22 09:52:30;;;;;;;20.67;18.47;;;;;;;7.80;44.97;94022.63;5049768;28;20249;-74
2022/03/22 09:54:55;;;;;;;22.00;16.53;;;;;;;7.64;45.06;94021.50;5050007;28;20233;-73
2022/03/22 09:57:21;;;;;;;21.67;16.83;;;;;;;7.84;44.93;94032.34;5049809;28;20370;-73
2022/03/22 09:59:46;;;;;;;17.20;15.13;;;;;;;7.97;45.04;94026.13;5050184;28;20286;-74
2022/03/22 10:02:11;;;;;;;18.23;15.97;;;;;;;8.29;43.96;94010.94;5049203;28;20212;-73
2022/03/22 10:04:42;;;;;;;18.40;16.47;;;;;;;8.52;43.94;93997.88;5049753;28;20237;-73
2022/03/22 10:07:28;;;;;;;18.13;16.10;;;;;;;8.67;43.41;94027.56;5050010;28;20206;-75
2022/03/22 10:09:55;;;;;;;19.13;16.40;;;;;;;8.55;46.59;94013.00;5049161;28;20939;-73
2022/03/22 10:12:30;;;;;;;17.00;15.47;;;;;;;7.88;45.17;94001.47;5050149;28;20205;-73
2022/03/22 10:15:10;;;;;;;20.10;15.53;;;;;;;8.07;44.89;93997.72;5038548;28;20264;-74
2022/03/22 10:17:36;;;;;;;17.73;15.67;;;;;;;8.70;44.03;93995.09;5047124;28;20229;-75
2022/03/22 10:20:02;;;;;;;16.57;14.93;;;;;;;8.07;44.91;93982.94;5041706;28;20230;-74
2022/03/22 10:22:28;;;;;;;16.97;15.37;;;;;;;7.96;45.88;93986.34;5049247;28;20174;-74
2022/03/22 10:24:58;;;;;;;17.87;16.10;;;;;;;8.12;45.43;93993.41;5049403;28;20224;-73
2022/03/22 10:27:24;;;;;;;17.03;14.73;;;;;;;8.27;44.98;93992.97;5049280;28;20186;-74
2022/03/22 10:29:51;;;;;;;16.60;15.10;;;;;;;7.84;46.88;93982.16;5049409;28;21112;-74
2022/03/22 10:32:17;;;;;;;15.63;14.23;;;;;;;7.90;46.02;93942.25;5049216;28;20195;-73
2022/03/22 10:34:42;;;;;;;18.13;16.33;;;;;;;8.06;46.09;93973.53;5048798;28;20298;-74
2022/03/22 10:37:08;;;;;;;16.50;14.90;;;;;;;7.99;46.06;93965.06;5049245;28;20192;-74
2022/03/22 10:39:39;;;;;;;16.97;15.10;;;;;;;8.05;45.94;93969.34;5045610;28;20217;-73
2022/03/22 10:42:07;;;;;;;16.50;15.07;;;;;;;7.90;45.51;93961.25;5048039;28;20196;-76
2022/03/22 10:44:37;;;;;;;16.77;14.37;;;;;;;7.88;46.61;93965.88;5046967;28;20244;-75
2022/03/22 10:47:04;;;;;;;16.33;14.80;;;;;;;7.90;46.06;93953.44;5046992;28;20178;-75
2022/03/22 10:49:29;;;;;;;16.60;15.10;;;;;;;7.94;46.38;93974.56;5049212;28;20233;-74
2022/03/22 10:51:56;;;;;;;18.20;16.30;;;;;;;7.89;45.97;93962.25;5048546;28;20189;-75
2022/03/22 10:54:22;;;;;;;19.80;16.43;;;;;;;7.75;46.60;93950.50;5048220;28;20238;-74
2022/03/22 10:56:54;;;;;;;17.40;14.77;;;;;;;7.66;46.91;93951.88;5049432;28;20278;-75
2022/03/22 10:59:24;;;;;;;17.73;16.00;;;;;;;7.80;46.03;93949.81;5047317;28;20229;-74
2022/03/22 11:01:52;;;;;;;17.30;15.07;;;;;;;7.70;47.26;93936.63;5048659;28;20190;-75
2022/03/22 11:04:22;;;;;;;17.67;15.93;;;;;;;8.18;46.66;93950.91;5046854;28;21330;-75
2022/03/22 11:06:48;;;;;;;17.37;15.83;;;;;;;8.51;45.82;93950.25;5047614;28;20177;-75
2022/03/22 11:09:15;;;;;;;17.50;15.57;;;;;;;8.54;44.26;93938.56;5048254;28;20244;-74
2022/03/22 11:11:41;;;;;;;17.20;15.47;;;;;;;8.49;44.07;93915.84;5048358;28;20939;-74
2022/03/22 11:14:06;;;;;;;16.40;14.80;;;;;;;8.56;44.21;93905.28;5047524;28;20248;-78
2022/03/22 11:16:34;;;;;;;16.13;14.63;;;;;;;8.60;43.08;93927.22;5047522;28;20186;-75
2022/03/22 11:19:02;;;;;;;17.20;14.77;;;;;;;8.61;44.46;93944.41;5044740;28;20239;-74
2022/03/22 11:21:29;;;;;;;17.77;16.17;;;;;;;8.62;44.08;93935.59;5049098;28;20174;-75
2022/03/22 11:24:04;;;;;;;16.23;14.80;;;;;;;8.65;43.41;93914.31;5047633;28;20230;-77
2022/03/22 11:26:30;;;;;;;15.67;14.07;;;;;;;8.96;43.47;93922.41;5046679;28;20173;-74
2022/03/22 11:28:56;;;;;;;16.43;14.80;;;;;;;8.89;41.89;93920.94;5047730;28;20226;-73
2022/03/22 11:31:26;;;;;;;15.23;13.80;;;;;;;8.78;41.50;93898.38;5048731;28;20213;-75
2022/03/22 11:34:11;;;;;;;16.20;14.23;;;;;;;8.69;41.17;93897.19;5047229;28;20234;-75
2022/03/22 11:36:53;;;;;;;15.30;14.03;;;;;;;8.57;40.08;93865.22;5047149;28;20178;-74
2022/03/22 11:42:15;;;;;;;16.53;15.10;;;;;;;8.92;40.84;93891.84;5046979;28;20234;-74
2022/03/22 11:42:28;;;;;;;16.00;14.60;;;;;;;9.17;41.03;93884.41;5048452;28;20182;-74
2022/03/22 11:44:54;;;;;;;16.03;14.43;;;;;;;9.33;40.94;93878.38;5047034;28;20351;-74
2022/03/22 11:47:19;;;;;;;16.37;14.67;;;;;;;9.28;41.13;93865.28;5048546;28;20190;-75
2022/03/22 11:49:54;;;;;;;16.83;15.53;;;;;;;9.68;39.29;93886.69;5045756;28;20222;-74
2022/03/22 11:52:25;;;;;;;16.00;14.40;;;;;;;9.74;38.61;93877.91;5047075;28;20177;-75
2022/03/22 11:55:08;;;;;;;16.57;14.03;;;;;;;9.75;38.73;93877.66;5047028;28;20237;-74
2022/03/22 11:57:49;;;;;;;16.47;15.00;;;;;;;9.80;38.60;93864.66;5046541;28;20225;-74